sensor_id;sensor_type;location;lat;lon;timestamp;P1;durP1;ratioP1;P2;durP2;ratioP2
16524;SDS011;8375;33.594;-117.718;2024-02-15T00:01:08;4.17;;;1.40;;
16524;SDS011;8375;33.594;-117.718;2024-02-15T00:03:37;5.30;;;1.40;;
16524;SDS011;8375;33.594;-117.718;2024-02-15T00:06:07;2.93;;;1.20;;
16524;SDS011;8375;33.594;-117.718;2024-02-15T00:08:36;4.00;;;1.40;;
16524;SDS011;8375;33.594;-117.718;2024-02-15T00:11:05;3.40;;;1.33;;
16524;SDS011;8375;33.594;-117.718;2024-02-15T00:13:34;4.30;;;1.60;;
16524;SDS011;8375;33.594;-117.718;2024-02-15T00:16:03;3.87;;;1.40;;
16524;SDS011;8375;33.594;-117.718;2024-02-15T00:18:32;5.20;;;1.40;;
16524;SDS011;8375;33.594;-117.718;2024-02-15T00:21:01;3.07;;;1.40;;
16524;SDS011;8375;33.594;-117.718;2024-02-15T00:23:31;2.73;;;1.50;;
16524;SDS011;8375;33.594;-117.718;2024-02-15T00:26:00;5.40;;;1.40;;
16524;SDS011;8375;33.594;-117.718;2024-02-15T00:28:28;3.33;;;1.30;;
16524;SDS011;8375;33.594;-117.718;2024-02-15T00:30:59;6.70;;;1.43;;
16524;SDS011;8375;33.594;-117.718;2024-02-15T00:33:29;5.20;;;1.40;;
16524;SDS011;8375;33.594;-117.718;2024-02-15T00:35:58;3.63;;;1.10;;
16524;SDS011;8375;33.594;-117.718;2024-02-15T00:38:27;2.53;;;1.30;;
16524;SDS011;8375;33.594;-117.718;2024-02-15T00:40:56;3.27;;;1.07;;
16524;SDS011;8375;33.594;-117.718;2024-02-15T00:43:28;5.50;;;1.43;;
16524;SDS011;8375;33.594;-117.718;2024-02-15T00:45:57;5.20;;;1.37;;
16524;SDS011;8375;33.594;-117.718;2024-02-15T00:48:25;4.50;;;1.33;;
16524;SDS011;8375;33.594;-117.718;2024-02-15T00:50:55;3.30;;;1.07;;
16524;SDS011;8375;33.594;-117.718;2024-02-15T00:53:24;3.50;;;1.60;;
16524;SDS011;8375;33.594;-117.718;2024-02-15T00:55:53;3.10;;;1.20;;
16524;SDS011;8375;33.594;-117.718;2024-02-15T00:58:23;3.43;;;1.40;;
16524;SDS011;8375;33.594;-117.718;2024-02-15T01:00:52;3.87;;;1.40;;
16524;SDS011;8375;33.594;-117.718;2024-02-15T01:03:21;5.57;;;1.90;;
16524;SDS011;8375;33.594;-117.718;2024-02-15T01:05:50;5.27;;;1.70;;
16524;SDS011;8375;33.594;-117.718;2024-02-15T01:08:21;4.33;;;2.20;;
16524;SDS011;8375;33.594;-117.718;2024-02-15T01:10:50;5.67;;;3.00;;
16524;SDS011;8375;33.594;-117.718;2024-02-15T01:13:20;3.93;;;2.23;;
16524;SDS011;8375;33.594;-117.718;2024-02-15T01:15:51;4.27;;;1.50;;
16524;SDS011;8375;33.594;-117.718;2024-02-15T01:18:19;4.17;;;1.53;;
16524;SDS011;8375;33.594;-117.718;2024-02-15T01:20:48;2.30;;;1.20;;
16524;SDS011;8375;33.594;-117.718;2024-02-15T01:23:18;3.07;;;1.57;;
16524;SDS011;8375;33.594;-117.718;2024-02-15T01:25:48;5.23;;;1.70;;
16524;SDS011;8375;33.594;-117.718;2024-02-15T01:28:17;3.13;;;1.37;;
16524;SDS011;8375;33.594;-117.718;2024-02-15T01:30:47;4.57;;;1.50;;
16524;SDS011;8375;33.594;-117.718;2024-02-15T01:33:18;5.83;;;2.37;;
16524;SDS011;8375;33.594;-117.718;2024-02-15T01:35:47;6.17;;;1.97;;
16524;SDS011;8375;33.594;-117.718;2024-02-15T01:38:15;3.50;;;1.83;;
16524;SDS011;8375;33.594;-117.718;2024-02-15T01:40:44;3.80;;;1.80;;
16524;SDS011;8375;33.594;-117.718;2024-02-15T01:43:15;4.60;;;2.20;;
16524;SDS011;8375;33.594;-117.718;2024-02-15T01:45:43;5.20;;;2.50;;
16524;SDS011;8375;33.594;-117.718;2024-02-15T01:48:14;4.97;;;2.70;;
16524;SDS011;8375;33.594;-117.718;2024-02-15T01:50:45;3.40;;;2.73;;
16524;SDS011;8375;33.594;-117.718;2024-02-15T01:53:14;5.70;;;2.87;;
16524;SDS011;8375;33.594;-117.718;2024-02-15T01:55:43;5.40;;;2.43;;
16524;SDS011;8375;33.594;-117.718;2024-02-15T01:58:12;5.30;;;2.63;;
16524;SDS011;8375;33.594;-117.718;2024-02-15T02:00:40;6.20;;;2.40;;
16524;SDS011;8375;33.594;-117.718;2024-02-15T02:03:10;5.40;;;2.30;;
16524;SDS011;8375;33.594;-117.718;2024-02-15T02:05:40;5.37;;;2.07;;
16524;SDS011;8375;33.594;-117.718;2024-02-15T02:08:11;7.17;;;2.10;;
16524;SDS011;8375;33.594;-117.718;2024-02-15T02:10:40;5.20;;;1.70;;
16524;SDS011;8375;33.594;-117.718;2024-02-15T02:13:09;6.00;;;2.50;;
16524;SDS011;8375;33.594;-117.718;2024-02-15T02:15:38;5.83;;;1.80;;
16524;SDS011;8375;33.594;-117.718;2024-02-15T02:18:07;6.70;;;2.60;;
16524;SDS011;8375;33.594;-117.718;2024-02-15T02:20:36;5.10;;;1.90;;
16524;SDS011;8375;33.594;-117.718;2024-02-15T02:23:06;5.37;;;2.40;;
16524;SDS011;8375;33.594;-117.718;2024-02-15T02:25:39;4.63;;;2.00;;
16524;SDS011;8375;33.594;-117.718;2024-02-15T02:28:08;7.00;;;2.20;;
16524;SDS011;8375;33.594;-117.718;2024-02-15T02:30:37;4.03;;;2.43;;
16524;SDS011;8375;33.594;-117.718;2024-02-15T02:33:10;3.90;;;2.07;;
16524;SDS011;8375;33.594;-117.718;2024-02-15T02:35:44;3.67;;;2.40;;
16524;SDS011;8375;33.594;-117.718;2024-02-15T02:38:13;5.30;;;2.10;;
16524;SDS011;8375;33.594;-117.718;2024-02-15T02:40:44;5.23;;;2.30;;
16524;SDS011;8375;33.594;-117.718;2024-02-15T02:43:12;4.63;;;2.17;;
16524;SDS011;8375;33.594;-117.718;2024-02-15T02:45:41;2.63;;;1.90;;
16524;SDS011;8375;33.594;-117.718;2024-02-15T02:48:11;9.87;;;2.57;;
16524;SDS011;8375;33.594;-117.718;2024-02-15T02:50:39;6.40;;;2.00;;
16524;SDS011;8375;33.594;-117.718;2024-02-15T02:53:08;4.03;;;2.20;;
16524;SDS011;8375;33.594;-117.718;2024-02-15T02:55:40;8.80;;;2.80;;
16524;SDS011;8375;33.594;-117.718;2024-02-15T02:58:13;6.60;;;3.37;;
16524;SDS011;8375;33.594;-117.718;2024-02-15T03:00:42;7.97;;;3.43;;
16524;SDS011;8375;33.594;-117.718;2024-02-15T03:03:12;7.07;;;4.53;;
16524;SDS011;8375;33.594;-117.718;2024-02-15T03:05:40;6.10;;;4.20;;
16524;SDS011;8375;33.594;-117.718;2024-02-15T03:08:09;7.37;;;4.23;;
16524;SDS011;8375;33.594;-117.718;2024-02-15T03:10:38;8.17;;;4.90;;
16524;SDS011;8375;33.594;-117.718;2024-02-15T03:13:10;6.73;;;3.63;;
16524;SDS011;8375;33.594;-117.718;2024-02-15T03:15:38;6.10;;;3.60;;
16524;SDS011;8375;33.594;-117.718;2024-02-15T03:18:07;7.33;;;3.23;;
16524;SDS011;8375;33.594;-117.718;2024-02-15T03:20:37;4.77;;;2.73;;
16524;SDS011;8375;33.594;-117.718;2024-02-15T03:23:05;6.53;;;3.90;;
16524;SDS011;8375;33.594;-117.718;2024-02-15T03:25:34;8.40;;;4.00;;
16524;SDS011;8375;33.594;-117.718;2024-02-15T03:28:03;5.70;;;3.13;;
16524;SDS011;8375;33.594;-117.718;2024-02-15T03:30:33;13.80;;;10.67;;
16524;SDS011;8375;33.594;-117.718;2024-02-15T03:33:02;13.03;;;7.90;;
16524;SDS011;8375;33.594;-117.718;2024-02-15T03:35:32;12.47;;;10.43;;
16524;SDS011;8375;33.594;-117.718;2024-02-15T03:38:01;15.90;;;10.30;;
16524;SDS011;8375;33.594;-117.718;2024-02-15T03:40:30;16.73;;;9.67;;
16524;SDS011;8375;33.594;-117.718;2024-02-15T03:42:59;22.70;;;15.20;;
16524;SDS011;8375;33.594;-117.718;2024-02-15T03:45:34;20.20;;;13.37;;
16524;SDS011;8375;33.594;-117.718;2024-02-15T03:48:03;18.97;;;12.47;;
16524;SDS011;8375;33.594;-117.718;2024-02-15T03:50:33;22.47;;;12.43;;
16524;SDS011;8375;33.594;-117.718;2024-02-15T03:53:01;23.77;;;14.03;;
16524;SDS011;8375;33.594;-117.718;2024-02-15T03:55:31;14.60;;;10.27;;
16524;SDS011;8375;33.594;-117.718;2024-02-15T03:58:00;9.83;;;6.03;;
16524;SDS011;8375;33.594;-117.718;2024-02-15T04:00:29;8.60;;;4.43;;
16524;SDS011;8375;33.594;-117.718;2024-02-15T04:02:59;15.50;;;9.87;;
16524;SDS011;8375;33.594;-117.718;2024-02-15T04:05:28;15.10;;;9.37;;
16524;SDS011;8375;33.594;-117.718;2024-02-15T04:07:56;11.90;;;8.07;;
16524;SDS011;8375;33.594;-117.718;2024-02-15T04:10:28;13.20;;;7.83;;
16524;SDS011;8375;33.594;-117.718;2024-02-15T04:12:56;10.43;;;6.80;;
16524;SDS011;8375;33.594;-117.718;2024-02-15T04:15:25;10.53;;;5.40;;
16524;SDS011;8375;33.594;-117.718;2024-02-15T04:17:56;5.70;;;4.00;;
16524;SDS011;8375;33.594;-117.718;2024-02-15T04:20:29;6.90;;;3.30;;
16524;SDS011;8375;33.594;-117.718;2024-02-15T04:22:57;5.67;;;3.17;;
16524;SDS011;8375;33.594;-117.718;2024-02-15T04:25:26;7.93;;;2.50;;
16524;SDS011;8375;33.594;-117.718;2024-02-15T04:27:54;5.93;;;2.70;;
16524;SDS011;8375;33.594;-117.718;2024-02-15T04:30:29;7.87;;;2.40;;
16524;SDS011;8375;33.594;-117.718;2024-02-15T04:32:58;3.73;;;2.67;;
16524;SDS011;8375;33.594;-117.718;2024-02-15T04:35:28;6.30;;;2.50;;
16524;SDS011;8375;33.594;-117.718;2024-02-15T04:37:57;4.43;;;2.30;;
16524;SDS011;8375;33.594;-117.718;2024-02-15T04:40:25;4.43;;;1.90;;
16524;SDS011;8375;33.594;-117.718;2024-02-15T04:42:54;5.73;;;2.60;;
16524;SDS011;8375;33.594;-117.718;2024-02-15T04:45:24;3.73;;;2.40;;
16524;SDS011;8375;33.594;-117.718;2024-02-15T04:47:52;6.53;;;2.73;;
16524;SDS011;8375;33.594;-117.718;2024-02-15T04:50:22;2.70;;;2.20;;
16524;SDS011;8375;33.594;-117.718;2024-02-15T04:52:53;3.83;;;2.40;;
16524;SDS011;8375;33.594;-117.718;2024-02-15T04:55:22;5.77;;;3.07;;
16524;SDS011;8375;33.594;-117.718;2024-02-15T04:57:52;7.57;;;2.83;;
16524;SDS011;8375;33.594;-117.718;2024-02-15T05:00:22;4.03;;;2.40;;
16524;SDS011;8375;33.594;-117.718;2024-02-15T05:02:51;4.80;;;2.00;;
16524;SDS011;8375;33.594;-117.718;2024-02-15T05:05:20;3.83;;;2.20;;
16524;SDS011;8375;33.594;-117.718;2024-02-15T05:07:50;3.17;;;2.07;;
16524;SDS011;8375;33.594;-117.718;2024-02-15T05:10:20;5.20;;;2.00;;
16524;SDS011;8375;33.594;-117.718;2024-02-15T05:12:49;6.23;;;2.43;;
16524;SDS011;8375;33.594;-117.718;2024-02-15T05:15:19;4.97;;;2.03;;
16524;SDS011;8375;33.594;-117.718;2024-02-15T05:17:50;4.33;;;2.10;;
16524;SDS011;8375;33.594;-117.718;2024-02-15T05:20:19;6.73;;;2.00;;
16524;SDS011;8375;33.594;-117.718;2024-02-15T05:22:48;4.47;;;1.97;;
16524;SDS011;8375;33.594;-117.718;2024-02-15T05:25:16;4.17;;;1.90;;
16524;SDS011;8375;33.594;-117.718;2024-02-15T05:27:49;4.27;;;1.90;;
16524;SDS011;8375;33.594;-117.718;2024-02-15T05:30:19;4.73;;;2.20;;
16524;SDS011;8375;33.594;-117.718;2024-02-15T05:32:48;2.80;;;1.50;;
16524;SDS011;8375;33.594;-117.718;2024-02-15T05:35:18;3.30;;;1.90;;
16524;SDS011;8375;33.594;-117.718;2024-02-15T05:37:47;5.03;;;1.87;;
16524;SDS011;8375;33.594;-117.718;2024-02-15T05:40:18;3.23;;;2.00;;
16524;SDS011;8375;33.594;-117.718;2024-02-15T05:42:46;6.00;;;2.07;;
16524;SDS011;8375;33.594;-117.718;2024-02-15T05:45:28;3.43;;;2.30;;
16524;SDS011;8375;33.594;-117.718;2024-02-15T05:47:59;3.93;;;1.73;;
16524;SDS011;8375;33.594;-117.718;2024-02-15T05:50:28;6.10;;;2.20;;
16524;SDS011;8375;33.594;-117.718;2024-02-15T05:52:57;4.33;;;1.80;;
16524;SDS011;8375;33.594;-117.718;2024-02-15T05:55:27;6.40;;;1.83;;
16524;SDS011;8375;33.594;-117.718;2024-02-15T05:58:01;4.80;;;2.00;;
16524;SDS011;8375;33.594;-117.718;2024-02-15T06:00:30;3.63;;;2.30;;
16524;SDS011;8375;33.594;-117.718;2024-02-15T06:03:00;7.43;;;2.40;;
16524;SDS011;8375;33.594;-117.718;2024-02-15T06:05:28;3.80;;;2.20;;
16524;SDS011;8375;33.594;-117.718;2024-02-15T06:07:58;4.33;;;1.90;;
16524;SDS011;8375;33.594;-117.718;2024-02-15T06:10:26;3.60;;;2.17;;
16524;SDS011;8375;33.594;-117.718;2024-02-15T06:12:56;6.47;;;1.90;;
16524;SDS011;8375;33.594;-117.718;2024-02-15T06:15:27;4.33;;;2.10;;
16524;SDS011;8375;33.594;-117.718;2024-02-15T06:17:56;3.27;;;1.70;;
16524;SDS011;8375;33.594;-117.718;2024-02-15T06:20:24;3.77;;;1.93;;
16524;SDS011;8375;33.594;-117.718;2024-02-15T06:22:55;2.97;;;1.80;;
16524;SDS011;8375;33.594;-117.718;2024-02-15T06:25:24;3.70;;;2.30;;
16524;SDS011;8375;33.594;-117.718;2024-02-15T06:27:56;4.80;;;1.90;;
16524;SDS011;8375;33.594;-117.718;2024-02-15T06:30:29;5.70;;;2.40;;
16524;SDS011;8375;33.594;-117.718;2024-02-15T06:33:23;3.47;;;2.10;;
16524;SDS011;8375;33.594;-117.718;2024-02-15T06:36:09;4.67;;;2.73;;
16524;SDS011;8375;33.594;-117.718;2024-02-15T06:38:54;6.13;;;2.67;;
16524;SDS011;8375;33.594;-117.718;2024-02-15T06:41:39;6.67;;;2.37;;
16524;SDS011;8375;33.594;-117.718;2024-02-15T06:44:08;4.97;;;2.57;;
16524;SDS011;8375;33.594;-117.718;2024-02-15T06:46:39;2.60;;;2.30;;
16524;SDS011;8375;33.594;-117.718;2024-02-15T06:49:08;4.53;;;2.47;;
16524;SDS011;8375;33.594;-117.718;2024-02-15T06:51:37;4.83;;;2.90;;
16524;SDS011;8375;33.594;-117.718;2024-02-15T06:54:05;5.87;;;3.00;;
16524;SDS011;8375;33.594;-117.718;2024-02-15T06:56:36;4.73;;;3.17;;
16524;SDS011;8375;33.594;-117.718;2024-02-15T06:59:13;4.73;;;2.90;;
16524;SDS011;8375;33.594;-117.718;2024-02-15T07:01:46;4.27;;;2.90;;
16524;SDS011;8375;33.594;-117.718;2024-02-15T07:04:17;5.77;;;3.20;;
16524;SDS011;8375;33.594;-117.718;2024-02-15T07:06:47;5.50;;;3.43;;
16524;SDS011;8375;33.594;-117.718;2024-02-15T07:09:27;5.20;;;3.60;;
16524;SDS011;8375;33.594;-117.718;2024-02-15T07:11:58;10.67;;;3.73;;
16524;SDS011;8375;33.594;-117.718;2024-02-15T07:14:40;5.97;;;4.13;;
16524;SDS011;8375;33.594;-117.718;2024-02-15T07:17:15;7.23;;;3.43;;
16524;SDS011;8375;33.594;-117.718;2024-02-15T07:20:06;6.53;;;3.73;;
16524;SDS011;8375;33.594;-117.718;2024-02-15T07:22:46;6.63;;;3.70;;
16524;SDS011;8375;33.594;-117.718;2024-02-15T07:25:16;10.00;;;4.00;;
16524;SDS011;8375;33.594;-117.718;2024-02-15T07:27:44;5.60;;;3.83;;
16524;SDS011;8375;33.594;-117.718;2024-02-15T07:30:15;5.30;;;3.57;;
16524;SDS011;8375;33.594;-117.718;2024-02-15T07:32:47;6.03;;;3.80;;
16524;SDS011;8375;33.594;-117.718;2024-02-15T07:35:18;4.47;;;3.33;;
16524;SDS011;8375;33.594;-117.718;2024-02-15T07:37:51;4.67;;;3.30;;
16524;SDS011;8375;33.594;-117.718;2024-02-15T07:40:27;3.63;;;2.97;;
16524;SDS011;8375;33.594;-117.718;2024-02-15T07:42:56;6.10;;;3.13;;
16524;SDS011;8375;33.594;-117.718;2024-02-15T07:45:25;5.77;;;2.77;;
16524;SDS011;8375;33.594;-117.718;2024-02-15T07:47:56;3.83;;;3.33;;
16524;SDS011;8375;33.594;-117.718;2024-02-15T07:50:24;6.63;;;3.13;;
16524;SDS011;8375;33.594;-117.718;2024-02-15T07:52:53;6.57;;;3.00;;
16524;SDS011;8375;33.594;-117.718;2024-02-15T07:55:21;5.07;;;3.40;;
16524;SDS011;8375;33.594;-117.718;2024-02-15T07:57:50;3.90;;;3.00;;
16524;SDS011;8375;33.594;-117.718;2024-02-15T08:00:19;4.90;;;2.97;;
16524;SDS011;8375;33.594;-117.718;2024-02-15T08:02:48;4.17;;;2.77;;
16524;SDS011;8375;33.594;-117.718;2024-02-15T08:05:18;5.97;;;3.07;;
16524;SDS011;8375;33.594;-117.718;2024-02-15T08:07:46;6.87;;;3.00;;
16524;SDS011;8375;33.594;-117.718;2024-02-15T08:10:15;5.63;;;3.00;;
16524;SDS011;8375;33.594;-117.718;2024-02-15T08:12:44;5.23;;;3.20;;
16524;SDS011;8375;33.594;-117.718;2024-02-15T08:15:18;4.50;;;3.00;;
16524;SDS011;8375;33.594;-117.718;2024-02-15T08:17:46;5.13;;;3.33;;
16524;SDS011;8375;33.594;-117.718;2024-02-15T08:20:15;7.40;;;3.20;;
16524;SDS011;8375;33.594;-117.718;2024-02-15T08:22:48;4.63;;;3.07;;
16524;SDS011;8375;33.594;-117.718;2024-02-15T08:25:17;3.87;;;2.90;;
16524;SDS011;8375;33.594;-117.718;2024-02-15T08:27:47;5.37;;;3.37;;
16524;SDS011;8375;33.594;-117.718;2024-02-15T08:30:16;5.70;;;3.57;;
16524;SDS011;8375;33.594;-117.718;2024-02-15T08:32:45;5.07;;;3.27;;
16524;SDS011;8375;33.594;-117.718;2024-02-15T08:35:14;5.47;;;3.67;;
16524;SDS011;8375;33.594;-117.718;2024-02-15T08:37:43;5.67;;;3.83;;
16524;SDS011;8375;33.594;-117.718;2024-02-15T08:40:14;4.73;;;3.63;;
16524;SDS011;8375;33.594;-117.718;2024-02-15T08:42:45;4.30;;;3.90;;
16524;SDS011;8375;33.594;-117.718;2024-02-15T08:45:13;7.70;;;3.40;;
16524;SDS011;8375;33.594;-117.718;2024-02-15T08:47:42;7.00;;;3.70;;
16524;SDS011;8375;33.594;-117.718;2024-02-15T08:50:11;6.60;;;3.90;;
16524;SDS011;8375;33.594;-117.718;2024-02-15T08:52:40;6.73;;;4.33;;
16524;SDS011;8375;33.594;-117.718;2024-02-15T08:55:09;8.13;;;4.13;;
16524;SDS011;8375;33.594;-117.718;2024-02-15T08:57:41;6.90;;;4.27;;
16524;SDS011;8375;33.594;-117.718;2024-02-15T09:00:10;9.17;;;4.90;;
16524;SDS011;8375;33.594;-117.718;2024-02-15T09:02:44;9.00;;;4.23;;
16524;SDS011;8375;33.594;-117.718;2024-02-15T09:05:14;8.03;;;4.60;;
16524;SDS011;8375;33.594;-117.718;2024-02-15T09:07:44;6.57;;;4.00;;
16524;SDS011;8375;33.594;-117.718;2024-02-15T09:10:14;6.70;;;4.60;;
16524;SDS011;8375;33.594;-117.718;2024-02-15T09:12:45;8.30;;;4.30;;
16524;SDS011;8375;33.594;-117.718;2024-02-15T09:15:14;7.60;;;5.37;;
16524;SDS011;8375;33.594;-117.718;2024-02-15T09:17:43;9.50;;;4.70;;
16524;SDS011;8375;33.594;-117.718;2024-02-15T09:20:12;6.50;;;5.20;;
16524;SDS011;8375;33.594;-117.718;2024-02-15T09:22:46;7.63;;;4.97;;
16524;SDS011;8375;33.594;-117.718;2024-02-15T09:25:16;8.70;;;5.27;;
16524;SDS011;8375;33.594;-117.718;2024-02-15T09:27:47;5.37;;;4.83;;
16524;SDS011;8375;33.594;-117.718;2024-02-15T09:30:15;6.80;;;4.70;;
16524;SDS011;8375;33.594;-117.718;2024-02-15T09:32:44;6.47;;;4.90;;
16524;SDS011;8375;33.594;-117.718;2024-02-15T09:35:13;8.13;;;4.60;;
16524;SDS011;8375;33.594;-117.718;2024-02-15T09:37:45;6.07;;;5.00;;
16524;SDS011;8375;33.594;-117.718;2024-02-15T09:40:14;6.00;;;4.97;;
16524;SDS011;8375;33.594;-117.718;2024-02-15T09:42:43;8.47;;;5.07;;
16524;SDS011;8375;33.594;-117.718;2024-02-15T09:45:14;7.00;;;5.00;;
16524;SDS011;8375;33.594;-117.718;2024-02-15T09:47:44;5.60;;;4.50;;
16524;SDS011;8375;33.594;-117.718;2024-02-15T09:50:15;5.43;;;4.80;;
16524;SDS011;8375;33.594;-117.718;2024-02-15T09:52:45;6.93;;;4.93;;
16524;SDS011;8375;33.594;-117.718;2024-02-15T09:55:16;8.30;;;5.33;;
16524;SDS011;8375;33.594;-117.718;2024-02-15T09:57:45;9.53;;;4.40;;
16524;SDS011;8375;33.594;-117.718;2024-02-15T10:00:16;6.43;;;4.63;;
16524;SDS011;8375;33.594;-117.718;2024-02-15T10:02:47;9.80;;;5.73;;
16524;SDS011;8375;33.594;-117.718;2024-02-15T10:05:18;5.67;;;4.30;;
16524;SDS011;8375;33.594;-117.718;2024-02-15T10:07:48;6.67;;;4.97;;
16524;SDS011;8375;33.594;-117.718;2024-02-15T10:10:17;6.07;;;4.33;;
16524;SDS011;8375;33.594;-117.718;2024-02-15T10:12:47;6.27;;;4.67;;
16524;SDS011;8375;33.594;-117.718;2024-02-15T10:15:32;5.10;;;4.57;;
16524;SDS011;8375;33.594;-117.718;2024-02-15T10:18:03;8.60;;;5.23;;
16524;SDS011;8375;33.594;-117.718;2024-02-15T10:20:34;6.30;;;5.40;;
16524;SDS011;8375;33.594;-117.718;2024-02-15T10:23:10;6.77;;;4.73;;
16524;SDS011;8375;33.594;-117.718;2024-02-15T10:25:40;8.07;;;5.13;;
16524;SDS011;8375;33.594;-117.718;2024-02-15T10:28:09;6.73;;;5.23;;
16524;SDS011;8375;33.594;-117.718;2024-02-15T10:30:43;6.50;;;5.50;;
16524;SDS011;8375;33.594;-117.718;2024-02-15T10:33:18;6.43;;;5.23;;
16524;SDS011;8375;33.594;-117.718;2024-02-15T10:35:47;9.30;;;4.90;;
16524;SDS011;8375;33.594;-117.718;2024-02-15T10:38:16;7.63;;;5.30;;
16524;SDS011;8375;33.594;-117.718;2024-02-15T10:40:45;7.17;;;5.53;;
16524;SDS011;8375;33.594;-117.718;2024-02-15T10:43:15;6.43;;;5.40;;
16524;SDS011;8375;33.594;-117.718;2024-02-15T10:45:46;7.33;;;5.80;;
16524;SDS011;8375;33.594;-117.718;2024-02-15T10:48:15;9.43;;;5.43;;
16524;SDS011;8375;33.594;-117.718;2024-02-15T10:50:44;6.20;;;5.23;;
16524;SDS011;8375;33.594;-117.718;2024-02-15T10:53:16;10.73;;;5.63;;
16524;SDS011;8375;33.594;-117.718;2024-02-15T10:55:59;7.27;;;5.50;;
16524;SDS011;8375;33.594;-117.718;2024-02-15T10:58:40;8.23;;;5.23;;
16524;SDS011;8375;33.594;-117.718;2024-02-15T11:01:17;7.53;;;5.50;;
16524;SDS011;8375;33.594;-117.718;2024-02-15T11:03:50;9.87;;;6.27;;
16524;SDS011;8375;33.594;-117.718;2024-02-15T11:06:20;6.23;;;5.47;;
16524;SDS011;8375;33.594;-117.718;2024-02-15T11:08:51;7.57;;;5.87;;
16524;SDS011;8375;33.594;-117.718;2024-02-15T11:11:20;8.53;;;5.90;;
16524;SDS011;8375;33.594;-117.718;2024-02-15T11:13:49;6.40;;;5.50;;
16524;SDS011;8375;33.594;-117.718;2024-02-15T11:16:43;10.67;;;5.83;;
16524;SDS011;8375;33.594;-117.718;2024-02-15T11:19:15;8.30;;;5.93;;
16524;SDS011;8375;33.594;-117.718;2024-02-15T11:22:13;9.77;;;5.40;;
16524;SDS011;8375;33.594;-117.718;2024-02-15T11:24:45;8.73;;;5.07;;
16524;SDS011;8375;33.594;-117.718;2024-02-15T11:27:23;5.40;;;4.90;;
16524;SDS011;8375;33.594;-117.718;2024-02-15T11:29:57;7.27;;;5.47;;
16524;SDS011;8375;33.594;-117.718;2024-02-15T11:32:41;9.30;;;5.07;;
16524;SDS011;8375;33.594;-117.718;2024-02-15T11:35:15;6.97;;;5.60;;
16524;SDS011;8375;33.594;-117.718;2024-02-15T11:37:55;8.67;;;6.00;;
16524;SDS011;8375;33.594;-117.718;2024-02-15T11:43:51;6.07;;;4.90;;
16524;SDS011;8375;33.594;-117.718;2024-02-15T11:46:27;8.57;;;5.23;;
16524;SDS011;8375;33.594;-117.718;2024-02-15T11:49:03;6.97;;;6.07;;
16524;SDS011;8375;33.594;-117.718;2024-02-15T11:51:45;7.43;;;6.50;;
16524;SDS011;8375;33.594;-117.718;2024-02-15T11:54:20;9.17;;;6.37;;
16524;SDS011;8375;33.594;-117.718;2024-02-15T11:56:53;7.47;;;5.77;;
16524;SDS011;8375;33.594;-117.718;2024-02-15T12:00:02;7.67;;;5.67;;
16524;SDS011;8375;33.594;-117.718;2024-02-15T12:03:03;9.57;;;5.70;;
16524;SDS011;8375;33.594;-117.718;2024-02-15T12:05:52;8.77;;;5.30;;
16524;SDS011;8375;33.594;-117.718;2024-02-15T12:08:38;6.23;;;4.90;;
16524;SDS011;8375;33.594;-117.718;2024-02-15T12:11:23;6.90;;;5.27;;
16524;SDS011;8375;33.594;-117.718;2024-02-15T12:14:12;7.87;;;4.97;;
16524;SDS011;8375;33.594;-117.718;2024-02-15T12:17:00;9.27;;;5.90;;
16524;SDS011;8375;33.594;-117.718;2024-02-15T12:19:47;11.77;;;5.70;;
16524;SDS011;8375;33.594;-117.718;2024-02-15T12:22:24;6.50;;;5.23;;
16524;SDS011;8375;33.594;-117.718;2024-02-15T12:24:55;6.53;;;5.70;;
16524;SDS011;8375;33.594;-117.718;2024-02-15T12:27:25;7.97;;;5.40;;
16524;SDS011;8375;33.594;-117.718;2024-02-15T12:29:56;7.80;;;5.80;;
16524;SDS011;8375;33.594;-117.718;2024-02-15T12:32:25;9.70;;;6.27;;
16524;SDS011;8375;33.594;-117.718;2024-02-15T12:35:09;7.90;;;5.80;;
16524;SDS011;8375;33.594;-117.718;2024-02-15T12:37:44;9.27;;;5.83;;
16524;SDS011;8375;33.594;-117.718;2024-02-15T12:40:13;8.93;;;6.03;;
16524;SDS011;8375;33.594;-117.718;2024-02-15T12:42:43;10.87;;;6.47;;
16524;SDS011;8375;33.594;-117.718;2024-02-15T12:45:16;8.37;;;5.57;;
16524;SDS011;8375;33.594;-117.718;2024-02-15T12:47:46;7.53;;;5.90;;
16524;SDS011;8375;33.594;-117.718;2024-02-15T12:50:17;8.83;;;6.87;;
16524;SDS011;8375;33.594;-117.718;2024-02-15T12:52:49;11.87;;;7.90;;
16524;SDS011;8375;33.594;-117.718;2024-02-15T12:55:19;8.77;;;7.90;;
16524;SDS011;8375;33.594;-117.718;2024-02-15T12:57:50;9.27;;;6.97;;
16524;SDS011;8375;33.594;-117.718;2024-02-15T13:00:19;12.80;;;7.90;;
16524;SDS011;8375;33.594;-117.718;2024-02-15T13:02:49;19.27;;;8.77;;
16524;SDS011;8375;33.594;-117.718;2024-02-15T13:05:18;11.83;;;7.53;;
16524;SDS011;8375;33.594;-117.718;2024-02-15T13:07:49;9.13;;;7.73;;
16524;SDS011;8375;33.594;-117.718;2024-02-15T13:10:18;9.97;;;6.90;;
16524;SDS011;8375;33.594;-117.718;2024-02-15T13:12:47;11.47;;;7.13;;
16524;SDS011;8375;33.594;-117.718;2024-02-15T13:15:16;8.83;;;6.67;;
16524;SDS011;8375;33.594;-117.718;2024-02-15T13:17:47;8.83;;;6.17;;
16524;SDS011;8375;33.594;-117.718;2024-02-15T13:20:16;10.07;;;7.33;;
16524;SDS011;8375;33.594;-117.718;2024-02-15T13:22:54;8.27;;;6.30;;
16524;SDS011;8375;33.594;-117.718;2024-02-15T13:25:25;8.93;;;6.90;;
16524;SDS011;8375;33.594;-117.718;2024-02-15T13:27:54;7.30;;;6.43;;
16524;SDS011;8375;33.594;-117.718;2024-02-15T13:30:23;7.87;;;6.00;;
16524;SDS011;8375;33.594;-117.718;2024-02-15T13:32:53;7.57;;;5.87;;
16524;SDS011;8375;33.594;-117.718;2024-02-15T13:35:22;7.67;;;5.73;;
16524;SDS011;8375;33.594;-117.718;2024-02-15T13:37:51;9.57;;;6.07;;
16524;SDS011;8375;33.594;-117.718;2024-02-15T13:40:24;6.67;;;5.40;;
16524;SDS011;8375;33.594;-117.718;2024-02-15T13:43:00;8.47;;;6.00;;
16524;SDS011;8375;33.594;-117.718;2024-02-15T13:45:38;6.47;;;5.53;;
16524;SDS011;8375;33.594;-117.718;2024-02-15T13:48:12;7.80;;;5.47;;
16524;SDS011;8375;33.594;-117.718;2024-02-15T13:50:42;6.03;;;5.27;;
16524;SDS011;8375;33.594;-117.718;2024-02-15T13:53:13;7.93;;;5.77;;
16524;SDS011;8375;33.594;-117.718;2024-02-15T13:55:41;7.47;;;6.03;;
16524;SDS011;8375;33.594;-117.718;2024-02-15T13:58:10;6.97;;;5.40;;
16524;SDS011;8375;33.594;-117.718;2024-02-15T14:00:39;7.87;;;5.67;;
16524;SDS011;8375;33.594;-117.718;2024-02-15T14:03:10;7.80;;;5.80;;
16524;SDS011;8375;33.594;-117.718;2024-02-15T14:05:41;10.03;;;5.80;;
16524;SDS011;8375;33.594;-117.718;2024-02-15T14:08:10;8.90;;;5.93;;
16524;SDS011;8375;33.594;-117.718;2024-02-15T14:10:41;7.90;;;5.40;;
16524;SDS011;8375;33.594;-117.718;2024-02-15T14:13:10;8.43;;;6.10;;
16524;SDS011;8375;33.594;-117.718;2024-02-15T14:15:40;10.10;;;6.13;;
16524;SDS011;8375;33.594;-117.718;2024-02-15T14:18:09;10.40;;;6.30;;
16524;SDS011;8375;33.594;-117.718;2024-02-15T14:20:39;7.00;;;5.80;;
16524;SDS011;8375;33.594;-117.718;2024-02-15T14:23:08;8.47;;;5.90;;
16524;SDS011;8375;33.594;-117.718;2024-02-15T14:25:41;7.23;;;5.77;;
16524;SDS011;8375;33.594;-117.718;2024-02-15T14:28:10;8.83;;;6.30;;
16524;SDS011;8375;33.594;-117.718;2024-02-15T14:30:39;7.90;;;5.80;;
16524;SDS011;8375;33.594;-117.718;2024-02-15T14:33:25;7.10;;;5.67;;
16524;SDS011;8375;33.594;-117.718;2024-02-15T14:35:53;6.47;;;5.87;;
16524;SDS011;8375;33.594;-117.718;2024-02-15T14:38:22;9.30;;;6.00;;
16524;SDS011;8375;33.594;-117.718;2024-02-15T14:40:52;6.87;;;5.90;;
16524;SDS011;8375;33.594;-117.718;2024-02-15T14:43:23;7.53;;;5.30;;
16524;SDS011;8375;33.594;-117.718;2024-02-15T14:45:52;6.23;;;5.63;;
16524;SDS011;8375;33.594;-117.718;2024-02-15T14:48:21;7.97;;;5.83;;